HETR

El Tor Airport

Egypt
TAF HETR 181100Z 1812/1918 31015KT CAVOK
Issued Valid From Valid To
Jan-18 @ 11:00 UTC
(2 hours ago)
Jan-18 @ 12:00 UTC
(35 minutes ago)
Jan-19 @ 18:00 UTC
(-1 days ago)
Jan-18 @ 12:00 to Jan-19 @ 18:00
TAF HETR 181100Z 1812/1918 31015KT CAVOK
Wind Visibility Clouds Conditions
310° at 15 knots 10,000+ meters
  • No significant clouds
TAF HETR 181100Z 1812/1918 31015KT CAVOK
Issued Jan-18 @ 11:00 UTC
(2 hours ago)
Valid From Jan-18 @ 12:00 UTC
(35 minutes ago)
Valid To Jan-19 @ 18:00 UTC
(-1 days ago)
Jan-18 @ 12:00 - Jan-19 @ 18:00
Wind Visibility
310° at 15 knots 10,000+ meters
Clouds
  • No significant clouds
Conditions